createdAt,value
2022-09-10T00:01:10.685Z,18.90
2022-09-10T00:02:13.310Z,19.13
2022-09-10T00:03:19.634Z,20.75
2022-09-10T00:04:22.184Z,19.42
2022-09-10T00:05:24.185Z,19.35
2022-09-10T00:06:28.028Z,19.70
2022-09-10T00:07:33.742Z,18.80
2022-09-10T00:08:39.171Z,19.77
2022-09-10T00:09:43.620Z,19.27
2022-09-10T00:10:49.971Z,20.92
2022-09-10T00:11:54.840Z,20.33
2022-09-10T00:12:58.880Z,20.55
2022-09-10T00:14:03.791Z,19.40
2022-09-10T00:15:10.833Z,19.50
2022-09-10T00:16:15.018Z,21.90
2022-09-10T00:17:17.133Z,20.73
2022-09-10T00:18:22.345Z,21.10
2022-09-10T00:19:28.794Z,21.33
2022-09-10T00:20:31.068Z,22.08
2022-09-10T00:21:33.795Z,22.65
2022-09-10T00:22:35.747Z,22.38
2022-09-10T00:23:38.005Z,22.33
2022-09-10T00:24:41.472Z,21.58
2022-09-10T00:25:43.519Z,21.20
2022-09-10T00:26:47.765Z,21.02
2022-09-10T00:27:50.276Z,21.73
2022-09-10T00:28:55.865Z,20.45
2022-09-10T00:30:01.082Z,20.75
2022-09-10T00:31:04.794Z,19.40
2022-09-10T00:32:07.167Z,19.95
2022-09-10T00:33:10.244Z,20.63
2022-09-10T00:34:14.403Z,21.00
2022-09-10T00:35:19.839Z,22.45
2022-09-10T00:36:25.757Z,20.67
2022-09-10T00:37:28.078Z,20.20
2022-09-10T00:38:32.618Z,20.30
2022-09-10T00:39:37.772Z,20.17
2022-09-10T00:40:40.728Z,20.25
2022-09-10T00:41:46.667Z,19.50
2022-09-10T00:42:49.406Z,20.45
2022-09-10T00:44:00.583Z,19.80
2022-09-10T00:45:04.788Z,18.95
2022-09-10T00:46:09.334Z,19.95
2022-09-10T00:47:23.661Z,21.27
2022-09-10T00:48:32.441Z,19.20
2022-09-10T00:49:39.540Z,20.05
2022-09-10T00:50:46.004Z,21.65
2022-09-10T00:51:51.592Z,20.88
2022-09-10T00:52:57.260Z,20.75
2022-09-10T00:54:03.117Z,20.70
2022-09-10T00:55:06.343Z,20.90
2022-09-10T00:56:09.575Z,21.23
2022-09-10T00:57:16.204Z,22.65
2022-09-10T00:58:21.658Z,23.38
2022-09-10T00:59:27.113Z,22.00
2022-09-10T01:00:32.346Z,23.02
2022-09-10T01:01:37.197Z,22.42
2022-09-10T01:02:41.845Z,20.73
2022-09-10T01:03:45.936Z,20.85
2022-09-10T01:04:48.328Z,20.38
2022-09-10T01:05:51.355Z,21.73
2022-09-10T01:06:56.321Z,19.23
2022-09-10T01:07:59.351Z,20.00
2022-09-10T01:09:03.165Z,20.15
2022-09-10T01:10:12.694Z,19.55
2022-09-10T01:11:37.975Z,19.80
2022-09-10T01:13:13.683Z,19.10
2022-09-10T01:14:39.832Z,18.90
2022-09-10T01:16:12.838Z,20.65
2022-09-10T01:17:35.149Z,19.23
2022-09-10T01:18:54.820Z,18.98
2022-09-10T01:20:19.657Z,19.10
2022-09-10T01:21:41.781Z,19.85
2022-09-10T01:23:26.840Z,20.92
2022-09-10T01:24:51.392Z,19.85
2022-09-10T01:26:00.949Z,20.08
2022-09-10T01:27:31.707Z,20.95
2022-09-10T01:28:42.344Z,20.45
2022-09-10T01:29:55.883Z,19.67
2022-09-10T01:31:08.421Z,20.63
2022-09-10T01:32:21.292Z,21.00
2022-09-10T01:33:37.736Z,20.30
2022-09-10T01:35:02.411Z,20.30
2022-09-10T01:36:14.415Z,21.27
2022-09-10T01:37:25.685Z,20.98
2022-09-10T01:38:36.524Z,21.63
2022-09-10T01:39:40.627Z,22.38
2022-09-10T01:40:46.838Z,21.08
2022-09-10T01:41:54.722Z,21.33
2022-09-10T01:43:10.975Z,21.80
2022-09-10T01:44:40.924Z,20.48
2022-09-10T01:46:28.597Z,21.05
2022-09-10T01:47:45.069Z,20.65
2022-09-10T01:49:05.778Z,19.73
2022-09-10T01:50:47.821Z,20.92
2022-09-10T01:52:25.423Z,20.77
2022-09-10T01:53:52.104Z,21.88
2022-09-10T01:55:10.784Z,22.85
2022-09-10T01:56:35.751Z,23.65
2022-09-10T01:58:04.295Z,23.15
2022-09-10T01:59:35.528Z,24.17
2022-09-10T02:00:45.979Z,25.92
2022-09-10T02:01:56.227Z,27.67
2022-09-10T02:02:59.267Z,28.27
2022-09-10T02:04:10.243Z,26.40
2022-09-10T02:05:14.170Z,25.77
2022-09-10T02:06:22.542Z,25.33
2022-09-10T02:07:26.857Z,27.48
2022-09-10T02:08:37.976Z,27.65
2022-09-10T02:09:42.190Z,28.80
2022-09-10T02:10:59.370Z,27.48
2022-09-10T02:12:06.361Z,28.85
2022-09-10T02:13:38.625Z,27.08
2022-09-10T02:15:16.171Z,28.25
2022-09-10T02:16:43.008Z,28.38
2022-09-10T02:17:47.453Z,28.77
2022-09-10T02:18:49.850Z,27.60
2022-09-10T02:19:54.240Z,28.27
2022-09-10T02:20:58.678Z,27.35
2022-09-10T02:22:01.174Z,27.73
2022-09-10T02:23:09.377Z,26.27
2022-09-10T02:24:13.303Z,25.08
2022-09-10T02:25:18.357Z,25.67
2022-09-10T02:26:20.541Z,25.40
2022-09-10T02:27:24.754Z,27.15
2022-09-10T02:28:27.640Z,25.65
2022-09-10T02:29:32.324Z,26.60
2022-09-10T02:30:35.202Z,26.98
2022-09-10T02:31:37.420Z,25.75
2022-09-10T02:32:39.639Z,26.02
2022-09-10T02:33:42.243Z,26.23
2022-09-10T02:34:46.353Z,24.70
2022-09-10T02:35:50.625Z,25.85
2022-09-10T02:36:53.931Z,26.02
2022-09-10T02:38:02.194Z,25.67
2022-09-10T02:39:17.798Z,25.90
2022-09-10T02:40:20.733Z,25.10
2022-09-10T02:41:25.602Z,25.80
2022-09-10T02:42:30.562Z,27.00
2022-09-10T02:43:36.167Z,26.55
2022-09-10T02:44:38.917Z,25.80
2022-09-10T02:45:44.248Z,27.25
2022-09-10T02:46:49.467Z,27.17
2022-09-10T02:47:55.147Z,27.40
2022-09-10T02:48:59.998Z,27.55
2022-09-10T02:50:08.916Z,25.65
2022-09-10T02:51:13.843Z,27.02
2022-09-10T02:52:16.164Z,26.85
2022-09-10T02:53:18.931Z,26.17
2022-09-10T02:54:23.033Z,26.50
2022-09-10T02:55:26.288Z,26.60
2022-09-10T02:56:30.425Z,25.60
2022-09-10T02:57:33.201Z,26.80
2022-09-10T02:58:38.278Z,27.92
2022-09-10T02:59:41.947Z,26.90
2022-09-10T03:00:45.818Z,26.50
2022-09-10T03:01:48.511Z,26.42
2022-09-10T03:03:02.968Z,27.65
2022-09-10T03:04:10.502Z,27.55
2022-09-10T03:05:14.675Z,27.20
2022-09-10T03:06:18.220Z,26.00
2022-09-10T03:07:22.063Z,26.38
2022-09-10T03:08:24.187Z,26.63
2022-09-10T03:09:29.421Z,28.33
2022-09-10T03:10:32.214Z,26.45
2022-09-10T03:11:40.867Z,25.42
2022-09-10T03:12:43.006Z,28.60
2022-09-10T03:13:50.441Z,28.17
2022-09-10T03:14:54.256Z,27.95
2022-09-10T03:15:59.029Z,28.00
2022-09-10T03:17:01.292Z,27.48
2022-09-10T03:18:07.024Z,28.05
2022-09-10T03:19:13.677Z,27.98
2022-09-10T03:20:16.149Z,28.10
2022-09-10T03:21:25.322Z,29.02
2022-09-10T03:22:28.578Z,27.40
2022-09-10T03:23:36.666Z,27.65
2022-09-10T03:24:43.621Z,27.35
2022-09-10T03:25:49.943Z,27.52
2022-09-10T03:26:59.452Z,27.50
2022-09-10T03:28:08.797Z,27.92
2022-09-10T03:29:11.644Z,26.67
2022-09-10T03:30:16.661Z,28.92
2022-09-10T03:31:21.854Z,29.20
2022-09-10T03:32:25.497Z,28.33
2022-09-10T03:33:28.753Z,29.45
2022-09-10T03:34:30.900Z,30.60
2022-09-10T03:35:34.532Z,30.58
2022-09-10T03:36:36.888Z,30.92
2022-09-10T03:37:42.984Z,31.17
2022-09-10T03:38:46.941Z,31.42
2022-09-10T03:39:49.864Z,31.20
2022-09-10T03:40:53.313Z,31.45
2022-09-10T03:41:55.436Z,32.25
2022-09-10T03:43:00.326Z,31.20
2022-09-10T03:44:03.637Z,32.70
2022-09-10T03:45:06.142Z,30.85
2022-09-10T03:46:08.339Z,30.70
2022-09-10T03:47:15.407Z,32.40
2022-09-10T03:48:21.688Z,31.05
2022-09-10T03:49:25.048Z,32.03
2022-09-10T03:50:31.247Z,32.30
2022-09-10T03:51:35.402Z,31.20
2022-09-10T03:52:38.280Z,31.35
2022-09-10T03:53:41.043Z,32.05
2022-09-10T03:54:51.246Z,32.17
2022-09-10T03:55:56.104Z,31.75
2022-09-10T03:57:05.308Z,32.45
2022-09-10T03:58:08.978Z,32.20
2022-09-10T03:59:14.436Z,32.88
2022-09-10T04:00:18.674Z,32.92
2022-09-10T04:01:25.231Z,32.60
2022-09-10T04:02:29.919Z,33.15
2022-09-10T04:03:33.695Z,31.92
2022-09-10T04:04:37.722Z,32.30
2022-09-10T04:05:44.313Z,32.90
2022-09-10T04:06:49.023Z,31.15
2022-09-10T04:07:52.224Z,30.52
2022-09-10T04:08:54.518Z,29.75
2022-09-10T04:09:58.288Z,28.58
2022-09-10T04:11:04.538Z,28.35
2022-09-10T04:12:07.900Z,36.13
2022-09-10T04:13:12.112Z,31.10
2022-09-10T04:14:16.071Z,28.88
2022-09-10T04:15:20.235Z,28.88
2022-09-10T04:16:23.576Z,28.92
2022-09-10T04:17:25.552Z,29.08
2022-09-10T04:18:29.640Z,28.63
2022-09-10T04:19:35.256Z,30.80
2022-09-10T04:20:38.226Z,30.02
2022-09-10T04:21:44.650Z,29.25
2022-09-10T04:22:49.076Z,28.80
2022-09-10T04:23:59.440Z,29.60
2022-09-10T04:25:01.797Z,29.10
2022-09-10T04:26:18.323Z,28.67
2022-09-10T04:27:23.415Z,30.08
2022-09-10T04:28:26.838Z,28.55
2022-09-10T04:29:29.713Z,29.63
2022-09-10T04:30:34.271Z,28.65
2022-09-10T04:31:36.955Z,28.50
2022-09-10T04:32:51.228Z,29.17
2022-09-10T04:33:57.627Z,28.00
2022-09-10T04:35:05.223Z,28.95
2022-09-10T04:36:07.951Z,28.05
2022-09-10T04:37:19.561Z,27.23
2022-09-10T04:38:24.139Z,27.67
2022-09-10T04:39:27.744Z,26.48
2022-09-10T04:40:29.827Z,27.38
2022-09-10T04:41:31.874Z,27.50
2022-09-10T04:42:34.007Z,27.00
2022-09-10T04:43:37.048Z,25.60
2022-09-10T04:44:40.566Z,22.77
2022-09-10T04:45:43.702Z,23.50
2022-09-10T04:46:47.569Z,25.20
2022-09-10T04:47:50.013Z,23.98
2022-09-10T04:48:52.210Z,22.15
2022-09-10T04:49:57.741Z,21.92
2022-09-10T04:51:15.827Z,23.67
2022-09-10T04:52:22.844Z,22.55
2022-09-10T04:53:27.914Z,23.40
2022-09-10T04:54:33.749Z,21.67
2022-09-10T04:55:38.538Z,22.60
2022-09-10T04:56:41.062Z,23.63
2022-09-10T04:57:43.061Z,21.90
2022-09-10T04:58:45.801Z,22.23
2022-09-10T04:59:48.437Z,21.42
2022-09-10T05:00:50.583Z,21.15
2022-09-10T05:01:56.642Z,21.05
2022-09-10T05:02:58.689Z,21.70
2022-09-10T05:04:00.929Z,19.33
2022-09-10T05:05:03.012Z,18.88
2022-09-10T05:06:05.383Z,19.88
2022-09-10T05:07:08.112Z,20.48
2022-09-10T05:08:10.310Z,18.83
2022-09-10T05:09:13.550Z,18.35
2022-09-10T05:10:16.967Z,17.38
2022-09-10T05:11:22.072Z,17.52
2022-09-10T05:12:26.619Z,16.77
2022-09-10T05:13:31.223Z,17.02
2022-09-10T05:14:34.863Z,16.27
2022-09-10T05:15:41.618Z,16.95
2022-09-10T05:16:46.491Z,16.40
2022-09-10T05:17:49.435Z,16.20
2022-09-10T05:18:51.792Z,15.02
2022-09-10T05:19:53.888Z,16.48
2022-09-10T05:20:58.319Z,16.05
2022-09-10T05:22:01.073Z,15.98
2022-09-10T05:23:03.845Z,15.63
2022-09-10T05:24:06.645Z,16.45
2022-09-10T05:25:10.033Z,16.15
2022-09-10T05:26:13.237Z,15.75
2022-09-10T05:27:17.139Z,15.15
2022-09-10T05:28:21.072Z,15.60
2022-09-10T05:29:23.166Z,15.45
2022-09-10T05:30:25.757Z,16.05
2022-09-10T05:31:28.801Z,15.63
2022-09-10T05:32:33.049Z,15.38
2022-09-10T05:33:35.920Z,15.32
2022-09-10T05:34:39.925Z,15.07
2022-09-10T05:35:44.009Z,13.82
2022-09-10T05:36:46.963Z,13.27
2022-09-10T05:37:49.061Z,14.35
2022-09-10T05:38:51.318Z,13.85
2022-09-10T05:39:53.381Z,13.77
2022-09-10T05:40:57.224Z,14.45
2022-09-10T05:42:00.594Z,14.55
2022-09-10T05:43:02.646Z,13.57
2022-09-10T05:44:07.172Z,14.25
2022-09-10T05:45:10.431Z,12.73
2022-09-10T05:46:12.426Z,14.63
2022-09-10T05:47:17.494Z,13.50
2022-09-10T05:48:20.039Z,14.10
2022-09-10T05:49:23.140Z,14.45
2022-09-10T05:50:26.303Z,13.38
2022-09-10T05:51:30.795Z,12.55
2022-09-10T05:53:41.907Z,11.63
2022-09-10T05:54:44.829Z,12.82
2022-09-10T05:55:47.491Z,12.98
2022-09-10T05:56:51.333Z,11.50
2022-09-10T05:57:53.647Z,11.65
2022-09-10T05:58:56.236Z,12.00
2022-09-10T05:59:58.587Z,10.55
2022-09-10T06:01:01.466Z,11.32
2022-09-10T06:02:03.924Z,11.30
2022-09-10T06:03:06.646Z,11.88
2022-09-10T06:04:14.473Z,11.40
2022-09-10T06:05:16.896Z,10.95
2022-09-10T06:06:19.835Z,11.50
2022-09-10T06:07:30.315Z,11.23
2022-09-10T06:08:33.185Z,9.82
2022-09-10T06:09:39.850Z,10.65
2022-09-10T06:11:02.784Z,10.27
2022-09-10T06:12:10.482Z,10.18
2022-09-10T06:13:12.479Z,10.55
2022-09-10T06:14:15.062Z,10.18
2022-09-10T06:15:18.286Z,10.05
2022-09-10T06:16:20.700Z,10.60
2022-09-10T06:17:22.736Z,9.45
2022-09-10T06:18:26.183Z,11.10
2022-09-10T06:19:28.208Z,10.10
2022-09-10T06:20:31.128Z,9.95
2022-09-10T06:21:33.289Z,10.13
2022-09-10T06:22:35.624Z,10.27
2022-09-10T06:23:39.664Z,10.48
2022-09-10T06:24:42.168Z,9.63
2022-09-10T06:25:44.941Z,9.35
2022-09-10T06:26:50.437Z,9.10
2022-09-10T06:27:52.877Z,9.20
2022-09-10T06:28:56.934Z,8.90
2022-09-10T06:29:59.661Z,9.73
2022-09-10T06:31:04.501Z,9.55
2022-09-10T06:32:07.984Z,9.75
2022-09-10T06:33:10.455Z,7.80
2022-09-10T06:34:12.420Z,8.93
2022-09-10T06:35:14.456Z,6.07
2022-09-10T06:36:19.117Z,5.97
2022-09-10T06:37:23.164Z,5.93
2022-09-10T06:38:29.510Z,6.10
2022-09-10T06:39:32.446Z,5.90
2022-09-10T06:40:36.626Z,5.40
2022-09-10T06:41:39.178Z,4.97
2022-09-10T06:42:46.729Z,4.63
2022-09-10T06:43:48.705Z,6.38
2022-09-10T06:45:06.683Z,5.32
2022-09-10T06:46:57.203Z,5.45
2022-09-10T06:48:32.757Z,4.60
2022-09-10T06:49:16.210Z,4.53
2022-09-10T06:50:22.931Z,4.60
2022-09-10T06:51:25.800Z,4.70
2022-09-10T06:52:30.668Z,3.83
2022-09-10T06:53:37.915Z,3.20
2022-09-10T06:54:40.572Z,2.70
2022-09-10T06:56:10.030Z,3.33
2022-09-10T06:57:13.926Z,3.60
2022-09-10T06:58:18.349Z,3.35
2022-09-10T06:59:22.849Z,3.30
2022-09-10T07:00:26.100Z,3.35
2022-09-10T07:01:30.248Z,3.35
2022-09-10T07:02:39.330Z,2.92
2022-09-10T07:03:45.794Z,3.00
2022-09-10T07:04:55.186Z,2.78
2022-09-10T07:06:02.899Z,3.28
2022-09-10T07:07:05.071Z,2.55
2022-09-10T07:08:07.925Z,2.40
2022-09-10T07:09:10.772Z,2.88
2022-09-10T07:10:24.022Z,2.67
2022-09-10T07:11:28.870Z,2.58
2022-09-10T07:12:33.219Z,2.35
2022-09-10T07:13:36.697Z,2.58
2022-09-10T07:14:39.040Z,2.70
2022-09-10T07:15:47.300Z,2.47
2022-09-10T07:16:51.610Z,2.80
2022-09-10T07:17:55.529Z,2.15
2022-09-10T07:18:59.374Z,2.15
2022-09-10T07:20:10.458Z,2.20
2022-09-10T07:21:31.387Z,1.92
2022-09-10T07:22:37.958Z,2.30
2022-09-10T07:23:51.862Z,2.63
2022-09-10T07:24:55.473Z,2.25
2022-09-10T07:26:09.863Z,2.88
2022-09-10T07:27:18.429Z,2.50
2022-09-10T07:28:21.987Z,2.92
2022-09-10T07:29:24.227Z,3.20
2022-09-10T07:30:29.754Z,2.67
2022-09-10T07:31:38.461Z,2.30
2022-09-10T07:32:46.778Z,2.53
2022-09-10T07:33:51.421Z,2.80
2022-09-10T07:34:56.027Z,2.90
2022-09-10T07:36:03.391Z,3.38
2022-09-10T07:37:07.747Z,3.28
2022-09-10T07:38:20.740Z,3.10
2022-09-10T07:39:25.920Z,3.47
2022-09-10T07:40:32.620Z,3.47
2022-09-10T07:41:35.072Z,3.53
2022-09-10T07:42:38.512Z,3.15
2022-09-10T07:43:44.076Z,2.22
2022-09-10T07:44:47.032Z,2.47
2022-09-10T07:45:49.246Z,2.50
2022-09-10T07:46:53.031Z,2.70
2022-09-10T07:47:55.680Z,2.50
2022-09-10T07:48:59.987Z,2.40
2022-09-10T07:50:02.823Z,2.67
2022-09-10T07:51:08.162Z,2.72
2022-09-10T07:52:13.550Z,2.92
2022-09-10T07:53:24.043Z,2.20
2022-09-10T07:54:27.219Z,2.20
2022-09-10T07:55:31.690Z,2.67
2022-09-10T07:56:35.256Z,2.50
2022-09-10T07:57:40.682Z,3.10
2022-09-10T07:58:44.958Z,2.95
2022-09-10T07:59:48.535Z,3.08
2022-09-10T08:00:54.260Z,2.78
2022-09-10T08:01:57.483Z,3.15
2022-09-10T08:03:00.182Z,3.33
2022-09-10T08:04:04.268Z,2.97
2022-09-10T08:05:10.878Z,3.20
2022-09-10T08:06:13.071Z,2.85
2022-09-10T08:07:16.615Z,3.28
2022-09-10T08:08:20.189Z,3.05
2022-09-10T08:09:22.343Z,3.28
2022-09-10T08:10:29.065Z,3.28
2022-09-10T08:11:33.108Z,3.00
2022-09-10T08:12:39.799Z,3.35
2022-09-10T08:13:45.203Z,2.90
2022-09-10T08:14:48.396Z,2.90
2022-09-10T08:15:51.824Z,3.20
2022-09-10T08:16:54.430Z,3.58
2022-09-10T08:17:59.058Z,3.90
2022-09-10T08:19:02.068Z,3.08
2022-09-10T08:20:08.592Z,3.10
2022-09-10T08:21:11.792Z,3.72
2022-09-10T08:22:14.405Z,3.72
2022-09-10T08:23:26.642Z,3.10
2022-09-10T08:24:28.544Z,3.22
2022-09-10T08:25:34.957Z,3.53
2022-09-10T08:26:37.248Z,3.13
2022-09-10T08:27:42.256Z,3.42
2022-09-10T08:28:44.771Z,3.83
2022-09-10T08:29:46.783Z,3.38
2022-09-10T08:31:03.095Z,3.58
2022-09-10T08:32:07.797Z,3.30
2022-09-10T08:33:09.883Z,3.15
2022-09-10T08:34:14.347Z,3.50
2022-09-10T08:35:21.064Z,3.75
2022-09-10T08:36:24.352Z,3.47
2022-09-10T08:37:27.738Z,3.63
2022-09-10T08:38:32.627Z,3.88
2022-09-10T08:39:35.406Z,2.95
2022-09-10T08:40:42.787Z,3.35
2022-09-10T08:41:54.613Z,3.38
2022-09-10T08:42:58.838Z,3.22
2022-09-10T08:44:08.258Z,3.28
2022-09-10T08:45:19.016Z,3.50
2022-09-10T08:46:49.317Z,3.13
2022-09-10T08:48:06.010Z,3.05
2022-09-10T08:49:21.386Z,3.28
2022-09-10T08:50:39.382Z,3.38
2022-09-10T08:52:16.723Z,3.30
2022-09-10T08:53:51.268Z,3.47
2022-09-10T08:55:05.756Z,3.20
2022-09-10T08:56:17.948Z,3.15
2022-09-10T08:57:37.618Z,2.90
2022-09-10T08:59:17.327Z,3.15
2022-09-10T09:00:23.479Z,3.13
2022-09-10T09:01:53.235Z,3.35
2022-09-10T09:03:23.396Z,3.85
2022-09-10T09:04:32.240Z,3.60
2022-09-10T09:05:46.560Z,5.00
2022-09-10T09:06:58.818Z,28.83
2022-09-10T09:08:01.086Z,3.50
2022-09-10T09:09:15.454Z,3.25
2022-09-10T09:10:28.295Z,3.50
2022-09-10T09:11:55.037Z,4.22
2022-09-10T09:13:34.944Z,5.63
2022-09-10T09:14:45.358Z,3.95
2022-09-10T09:16:17.890Z,5.35
2022-09-10T09:17:23.308Z,4.07
2022-09-10T09:18:56.312Z,3.80
2022-09-10T09:20:34.854Z,3.35
2022-09-10T09:21:51.300Z,3.50
2022-09-10T09:23:14.911Z,3.50
2022-09-10T09:24:35.589Z,3.85
2022-09-10T09:25:59.288Z,4.00
2022-09-10T09:27:10.192Z,3.35
2022-09-10T09:28:28.345Z,3.10
2022-09-10T09:29:53.306Z,3.35
2022-09-10T09:31:00.052Z,3.30
2022-09-10T09:32:05.760Z,3.67
2022-09-10T09:33:16.535Z,3.58
2022-09-10T09:34:33.256Z,3.38
2022-09-10T09:35:50.601Z,3.42
2022-09-10T09:37:00.805Z,3.53
2022-09-10T09:38:22.392Z,3.20
2022-09-10T09:39:36.774Z,3.33
2022-09-10T09:40:48.868Z,3.40
2022-09-10T09:42:18.516Z,3.83
2022-09-10T09:43:42.618Z,3.90
2022-09-10T09:45:04.312Z,4.35
2022-09-10T09:46:14.220Z,4.85
2022-09-10T09:47:17.660Z,4.32
2022-09-10T09:48:22.539Z,3.72
2022-09-10T09:49:26.307Z,4.18
2022-09-10T09:50:34.264Z,3.88
2022-09-10T09:51:36.741Z,4.50
2022-09-10T09:52:44.033Z,4.22
2022-09-10T09:53:48.955Z,3.50
2022-09-10T09:55:14.155Z,3.90
2022-09-10T09:56:22.570Z,3.95
2022-09-10T09:57:24.765Z,3.75
2022-09-10T09:58:29.259Z,3.47
2022-09-10T09:59:34.981Z,3.65
2022-09-10T10:00:38.199Z,3.40
2022-09-10T10:01:42.990Z,3.50
2022-09-10T10:02:47.210Z,3.45
2022-09-10T10:04:05.500Z,3.78
2022-09-10T10:05:16.282Z,3.67
2022-09-10T10:06:27.378Z,3.47
2022-09-10T10:07:32.502Z,3.35
2022-09-10T10:08:44.416Z,4.15
2022-09-10T10:09:49.184Z,3.42
2022-09-10T10:10:52.612Z,4.07
2022-09-10T10:12:07.417Z,12.07
2022-09-10T10:13:21.567Z,4.57
2022-09-10T10:14:42.424Z,4.53
2022-09-10T10:15:44.708Z,4.07
2022-09-10T10:16:52.335Z,3.92
2022-09-10T10:17:55.018Z,3.50
2022-09-10T10:18:57.026Z,3.50
2022-09-10T10:20:15.489Z,4.10
2022-09-10T10:21:20.115Z,3.60
2022-09-10T10:22:26.248Z,3.80
2022-09-10T10:23:41.187Z,4.07
2022-09-10T10:24:55.155Z,3.75
2022-09-10T10:25:57.092Z,4.30
2022-09-10T10:27:00.662Z,3.80
2022-09-10T10:28:03.004Z,4.90
2022-09-10T10:29:18.064Z,5.30
2022-09-10T10:30:21.832Z,5.18
2022-09-10T10:31:34.799Z,5.78
2022-09-10T10:32:57.123Z,4.40
2022-09-10T10:34:17.033Z,4.45
2022-09-10T10:35:28.400Z,4.55
2022-09-10T10:36:45.298Z,4.05
2022-09-10T10:38:03.394Z,4.32
2022-09-10T10:39:21.743Z,4.20
2022-09-10T10:40:23.701Z,4.65
2022-09-10T10:42:04.744Z,4.70
2022-09-10T10:43:15.119Z,4.00
2022-09-10T10:44:24.323Z,4.18
2022-09-10T10:45:41.222Z,4.47
2022-09-10T10:47:02.947Z,4.97
2022-09-10T10:48:12.525Z,4.70
2022-09-10T10:49:48.412Z,4.45
2022-09-10T10:50:59.037Z,4.20
2022-09-10T10:52:08.080Z,5.00
2022-09-10T10:53:14.972Z,4.32
2022-09-10T10:54:44.927Z,4.40
2022-09-10T10:55:52.815Z,4.15
2022-09-10T10:57:49.741Z,4.25
2022-09-10T10:59:23.672Z,4.18
2022-09-10T11:00:28.147Z,4.85
2022-09-10T11:01:51.346Z,4.75
2022-09-10T11:03:21.808Z,4.70
2022-09-10T11:04:44.250Z,4.90
2022-09-10T11:06:08.592Z,5.25
2022-09-10T11:07:17.162Z,4.68
2022-09-10T11:08:58.491Z,5.53
2022-09-10T11:10:34.908Z,5.00
2022-09-10T11:11:53.518Z,4.93
2022-09-10T11:13:22.338Z,4.97
2022-09-10T11:14:54.074Z,4.82
2022-09-10T11:16:15.264Z,4.60
2022-09-10T11:17:40.399Z,4.70
2022-09-10T11:18:58.917Z,4.78
2022-09-10T11:20:29.409Z,4.90
2022-09-10T11:21:45.434Z,5.07
2022-09-10T11:23:00.492Z,5.18
2022-09-10T11:24:13.831Z,5.18
2022-09-10T11:25:29.618Z,4.72
2022-09-10T11:26:39.935Z,5.22
2022-09-10T11:27:46.589Z,5.20
2022-09-10T11:28:57.420Z,5.00
2022-09-10T11:30:06.438Z,5.32
2022-09-10T11:31:36.910Z,5.03
2022-09-10T11:33:24.608Z,4.68
2022-09-10T11:34:50.319Z,4.90
2022-09-10T11:36:29.491Z,4.90
2022-09-10T11:37:57.455Z,5.68
2022-09-10T11:39:30.693Z,5.55
2022-09-10T11:40:42.769Z,5.55
2022-09-10T11:41:49.100Z,4.95
2022-09-10T11:42:56.467Z,4.90
2022-09-10T11:44:10.879Z,5.22
2022-09-10T11:45:40.179Z,5.03
2022-09-10T11:46:54.085Z,5.55
2022-09-10T11:48:06.085Z,5.05
2022-09-10T11:49:16.387Z,5.47
2022-09-10T11:50:34.420Z,5.43
2022-09-10T11:51:45.393Z,5.25
2022-09-10T11:52:47.797Z,5.85
2022-09-10T11:53:50.516Z,5.18
2022-09-10T11:54:54.554Z,5.63
2022-09-10T11:56:08.694Z,5.80
2022-09-10T11:57:11.520Z,7.90
2022-09-10T11:58:59.503Z,5.68
2022-09-10T12:00:12.250Z,7.10
2022-09-10T12:01:20.255Z,6.45
2022-09-10T12:02:58.705Z,5.95
2022-09-10T12:05:52.170Z,6.20
2022-09-10T12:07:01.912Z,5.60
2022-09-10T12:08:10.842Z,5.38
2022-09-10T12:09:22.687Z,6.43
2022-09-10T12:10:34.611Z,6.40
2022-09-10T12:12:05.249Z,6.07
2022-09-10T12:13:15.292Z,6.22
2022-09-10T12:14:19.973Z,6.40
2022-09-10T12:15:31.400Z,6.38
2022-09-10T12:16:42.419Z,5.88
2022-09-10T12:17:48.855Z,7.00
2022-09-10T12:18:54.710Z,6.30
2022-09-10T12:19:59.898Z,6.57
2022-09-10T12:21:09.560Z,7.32
2022-09-10T12:22:24.660Z,6.30
2022-09-10T12:23:40.109Z,6.68
2022-09-10T12:24:52.707Z,6.82
2022-09-10T12:26:00.139Z,6.70
2022-09-10T12:27:05.359Z,6.50
2022-09-10T12:28:42.689Z,6.65
2022-09-10T12:29:45.002Z,6.45
2022-09-10T12:30:46.995Z,6.60
2022-09-10T12:32:27.151Z,6.45
2022-09-10T12:33:30.478Z,6.72
2022-09-10T12:34:32.592Z,6.32
2022-09-10T12:35:34.763Z,6.22
2022-09-10T12:36:36.755Z,6.28
2022-09-10T12:37:38.872Z,6.10
2022-09-10T12:38:58.944Z,6.65
2022-09-10T12:40:22.741Z,5.97
2022-09-10T12:41:24.649Z,6.55
2022-09-10T12:42:30.470Z,6.53
2022-09-10T12:43:41.445Z,5.88
2022-09-10T12:44:45.979Z,6.53
2022-09-10T12:46:09.853Z,6.15
2022-09-10T12:47:17.694Z,6.22
2022-09-10T12:48:22.867Z,5.78
2022-09-10T12:49:27.267Z,5.88
2022-09-10T12:50:35.598Z,6.05
2022-09-10T12:51:57.695Z,6.22
2022-09-10T12:53:21.171Z,6.63
2022-09-10T12:54:45.024Z,8.30
2022-09-10T12:55:59.638Z,6.50
2022-09-10T12:57:33.816Z,7.00
2022-09-10T12:59:12.692Z,11.20
2022-09-10T13:00:19.896Z,10.35
2022-09-10T13:01:29.601Z,9.68
2022-09-10T13:02:36.484Z,8.82
2022-09-10T13:03:51.470Z,7.75
2022-09-10T13:05:01.100Z,7.88
2022-09-10T13:06:05.580Z,7.00
2022-09-10T13:07:40.396Z,7.55
2022-09-10T13:08:45.546Z,7.47
2022-09-10T13:10:02.632Z,7.18
2022-09-10T13:11:19.419Z,7.40
2022-09-10T13:12:25.199Z,7.35
2022-09-10T13:13:38.837Z,6.72
2022-09-10T13:14:47.603Z,7.88
2022-09-10T13:15:52.429Z,9.77
2022-09-10T13:16:55.547Z,7.43
2022-09-10T13:17:57.747Z,7.18
2022-09-10T13:19:14.704Z,6.88
2022-09-10T13:20:23.507Z,8.05
2022-09-10T13:21:25.571Z,8.07
2022-09-10T13:22:32.514Z,6.80
2022-09-10T13:23:45.122Z,7.43
2022-09-10T13:25:07.362Z,7.00
2022-09-10T13:26:32.026Z,6.60
2022-09-10T13:27:33.956Z,7.50
2022-09-10T13:28:37.096Z,7.30
2022-09-10T13:29:43.163Z,6.53
2022-09-10T13:30:46.216Z,7.70
2022-09-10T13:32:01.580Z,7.72
2022-09-10T13:33:07.915Z,7.97
2022-09-10T13:34:16.235Z,9.00
2022-09-10T13:35:19.863Z,9.32
2022-09-10T13:36:42.797Z,7.72
2022-09-10T13:38:06.531Z,8.38
2022-09-10T13:39:30.012Z,7.40
2022-09-10T13:41:03.167Z,6.85
2022-09-10T13:42:33.633Z,6.47
2022-09-10T13:43:41.235Z,7.32
2022-09-10T13:44:53.801Z,7.25
2022-09-10T13:46:02.931Z,7.03
2022-09-10T13:47:13.318Z,7.38
2022-09-10T13:48:21.334Z,7.40
2022-09-10T13:49:36.085Z,7.28
2022-09-10T13:51:09.270Z,7.18
2022-09-10T13:52:16.183Z,6.85
2022-09-10T13:53:20.279Z,7.15
2022-09-10T13:54:34.733Z,6.90
2022-09-10T13:55:38.047Z,7.30
2022-09-10T13:56:43.802Z,7.43
2022-09-10T13:57:49.612Z,8.05
2022-09-10T13:58:56.333Z,7.15
2022-09-10T14:00:10.777Z,7.22
2022-09-10T14:01:13.183Z,7.60
2022-09-10T14:02:16.391Z,7.50
2022-09-10T14:03:29.598Z,16.77
2022-09-10T14:04:44.402Z,15.30
2022-09-10T14:06:01.803Z,11.82
2022-09-10T14:07:14.396Z,8.95
2022-09-10T14:08:25.970Z,9.50
2022-09-10T14:09:28.728Z,9.20
2022-09-10T14:10:31.819Z,10.70
2022-09-10T14:11:41.408Z,10.82
2022-09-10T14:12:44.021Z,9.45
2022-09-10T14:14:10.427Z,6.35
2022-09-10T14:15:18.896Z,6.60
2022-09-10T14:16:34.410Z,6.57
2022-09-10T14:17:43.831Z,7.20
2022-09-10T14:18:51.643Z,6.15
2022-09-10T14:20:01.566Z,6.38
2022-09-10T14:21:06.083Z,6.60
2022-09-10T14:22:15.523Z,6.50
2022-09-10T14:23:18.059Z,7.05
2022-09-10T14:24:33.051Z,7.65
2022-09-10T14:25:40.782Z,11.55
2022-09-10T14:27:16.949Z,10.27
2022-09-10T14:28:24.295Z,10.38
2022-09-10T14:29:26.608Z,9.18
2022-09-10T14:30:32.307Z,7.75
2022-09-10T14:31:38.430Z,14.52
2022-09-10T14:32:40.919Z,18.60
2022-09-10T14:33:42.936Z,13.57
2022-09-10T14:34:45.046Z,14.55
2022-09-10T14:35:51.643Z,10.18
2022-09-10T14:36:53.864Z,47.95
2022-09-10T14:37:56.105Z,28.88
2022-09-10T14:39:29.109Z,7.18
2022-09-10T14:40:36.970Z,6.13
2022-09-10T14:41:45.940Z,5.53
2022-09-10T14:42:49.665Z,6.88
2022-09-10T14:44:24.048Z,6.65
2022-09-10T14:45:50.000Z,10.10
2022-09-10T14:46:59.433Z,25.50
2022-09-10T14:48:01.574Z,25.05
2022-09-10T14:49:09.851Z,22.40
2022-09-10T14:50:31.254Z,17.00
2022-09-10T14:51:33.416Z,14.55
2022-09-10T14:52:35.504Z,13.90
2022-09-10T14:53:42.368Z,8.82
2022-09-10T14:54:45.865Z,9.52
2022-09-10T14:55:47.886Z,6.90
2022-09-10T14:56:54.399Z,9.48
2022-09-10T14:57:59.874Z,9.15
2022-09-10T14:59:34.799Z,8.10
2022-09-10T15:00:36.950Z,9.20
2022-09-10T15:01:41.678Z,7.10
2022-09-10T15:02:43.689Z,6.65
2022-09-10T15:03:46.318Z,7.55
2022-09-10T15:04:50.143Z,9.73
2022-09-10T15:05:52.284Z,8.70
2022-09-10T15:06:56.252Z,5.32
2022-09-10T15:07:58.331Z,5.95
2022-09-10T15:09:00.837Z,5.15
2022-09-10T15:10:02.845Z,5.03
2022-09-10T15:11:06.807Z,4.65
2022-09-10T15:12:15.513Z,4.85